KEYW/EYW METAR and TAF weather

Enter ICAO airport designator
Station Type Date Time Source
KEYW METAR 2019/06/27 03:53 UTC NOAA

KEYW 270353Z AUTO 01010KT 10SM CLR 28/23 A3010 RMK AO2 SLP191 T02830228


Station Type Date Time Source
KEYW Decoded METAR 2019/06/27 03:53 UTC NOAA

KEY WEST INTERNATIONAL AIRPORT , FL, United States (KEYW) 24-33N 81-46W 5M
Jun 26, 2019 - 11:53 PM EDT / 2019.06.27 0353 UTC
Wind: from the N (010 degrees) at 12 MPH (10 KT):0
Visibility: 10 mile(s):0
Sky conditions: clear
Temperature: 82.9 F (28.3 C)
Dew Point: 73.0 F (22.8 C)
Relative Humidity: 72%
Pressure (altimeter): 30.1 in. Hg (1019 hPa)
ob: KEYW 270353Z AUTO 01010KT 10SM CLR 28/23 A3010 RMK AO2 SLP191 T02830228
cycle: 4

Station Type Date Time Source
KEYW TAF 2019/06/27 03:58 UTC NOAA

TAF
AMD KEYW 270257Z 2703/2724 02010G17KT P6SM FEW025 SCT050 BKN250
FM270330 08008KT P6SM FEW025 SCT050
FM271700 11009KT P6SM VCTS SCT025CB BKN250

Example: see airport list